sensor_id;sensor_type;location;lat;lon;timestamp;P1;durP1;ratioP1;P2;durP2;ratioP2
23179;SDS011;11758;45.756;11.432;2022-10-04T00:04:45;31.60;;;21.65;;
23179;SDS011;11758;45.756;11.432;2022-10-04T00:09:43;36.17;;;25.38;;
23179;SDS011;11758;45.756;11.432;2022-10-04T00:14:46;32.20;;;23.92;;
23179;SDS011;11758;45.756;11.432;2022-10-04T00:17:13;37.65;;;25.08;;
23179;SDS011;11758;45.756;11.432;2022-10-04T00:19:44;34.65;;;23.80;;
23179;SDS011;11758;45.756;11.432;2022-10-04T00:22:44;30.35;;;22.48;;
23179;SDS011;11758;45.756;11.432;2022-10-04T00:27:37;31.50;;;21.95;;
23179;SDS011;11758;45.756;11.432;2022-10-04T00:35:05;33.90;;;22.35;;
23179;SDS011;11758;45.756;11.432;2022-10-04T00:38:34;32.53;;;23.60;;
23179;SDS011;11758;45.756;11.432;2022-10-04T00:43:24;27.60;;;19.63;;
23179;SDS011;11758;45.756;11.432;2022-10-04T00:45:50;34.00;;;24.80;;
23179;SDS011;11758;45.756;11.432;2022-10-04T00:48:59;35.30;;;24.52;;
23179;SDS011;11758;45.756;11.432;2022-10-04T00:56:12;32.15;;;23.70;;
23179;SDS011;11758;45.756;11.432;2022-10-04T00:59:16;33.08;;;24.00;;
23179;SDS011;11758;45.756;11.432;2022-10-04T01:01:32;32.80;;;22.23;;
23179;SDS011;11758;45.756;11.432;2022-10-04T01:03:59;35.83;;;24.27;;
23179;SDS011;11758;45.756;11.432;2022-10-04T01:06:27;35.63;;;24.15;;
23179;SDS011;11758;45.756;11.432;2022-10-04T01:08:56;32.78;;;23.08;;
23179;SDS011;11758;45.756;11.432;2022-10-04T01:11:44;34.92;;;23.20;;
23179;SDS011;11758;45.756;11.432;2022-10-04T01:14:19;30.27;;;21.08;;
23179;SDS011;11758;45.756;11.432;2022-10-04T01:16:46;25.73;;;20.25;;
23179;SDS011;11758;45.756;11.432;2022-10-04T01:24:33;31.90;;;21.83;;
23179;SDS011;11758;45.756;11.432;2022-10-04T01:27:00;31.50;;;22.40;;
23179;SDS011;11758;45.756;11.432;2022-10-04T01:29:29;25.27;;;18.90;;
23179;SDS011;11758;45.756;11.432;2022-10-04T01:31:59;26.58;;;20.35;;
23179;SDS011;11758;45.756;11.432;2022-10-04T01:34:27;29.40;;;22.30;;
23179;SDS011;11758;45.756;11.432;2022-10-04T01:36:54;33.10;;;21.35;;
23179;SDS011;11758;45.756;11.432;2022-10-04T01:39:22;32.95;;;23.23;;
23179;SDS011;11758;45.756;11.432;2022-10-04T01:47:10;31.98;;;23.50;;
23179;SDS011;11758;45.756;11.432;2022-10-04T01:49:40;30.10;;;21.60;;
23179;SDS011;11758;45.756;11.432;2022-10-04T01:54:35;26.90;;;18.63;;
23179;SDS011;11758;45.756;11.432;2022-10-04T01:57:05;29.92;;;20.90;;
23179;SDS011;11758;45.756;11.432;2022-10-04T01:59:43;22.30;;;17.60;;
23179;SDS011;11758;45.756;11.432;2022-10-04T02:02:18;27.48;;;19.45;;
23179;SDS011;11758;45.756;11.432;2022-10-04T02:04:49;30.20;;;20.35;;
23179;SDS011;11758;45.756;11.432;2022-10-04T02:07:16;32.08;;;22.10;;
23179;SDS011;11758;45.756;11.432;2022-10-04T02:09:44;31.95;;;21.35;;
23179;SDS011;11758;45.756;11.432;2022-10-04T02:12:14;28.58;;;19.02;;
23179;SDS011;11758;45.756;11.432;2022-10-04T02:14:43;28.15;;;20.30;;
23179;SDS011;11758;45.756;11.432;2022-10-04T02:17:12;30.50;;;21.40;;
23179;SDS011;11758;45.756;11.432;2022-10-04T02:19:39;30.15;;;21.40;;
23179;SDS011;11758;45.756;11.432;2022-10-04T02:22:07;27.38;;;20.15;;
23179;SDS011;11758;45.756;11.432;2022-10-04T02:24:34;29.17;;;21.45;;
23179;SDS011;11758;45.756;11.432;2022-10-04T02:27:01;29.50;;;20.95;;
23179;SDS011;11758;45.756;11.432;2022-10-04T02:29:28;27.15;;;20.25;;
23179;SDS011;11758;45.756;11.432;2022-10-04T02:31:54;19.38;;;15.35;;
23179;SDS011;11758;45.756;11.432;2022-10-04T02:34:39;23.67;;;15.75;;
23179;SDS011;11758;45.756;11.432;2022-10-04T02:37:05;15.48;;;13.18;;
23179;SDS011;11758;45.756;11.432;2022-10-04T02:39:33;14.88;;;12.30;;
23179;SDS011;11758;45.756;11.432;2022-10-04T02:42:07;20.77;;;14.20;;
23179;SDS011;11758;45.756;11.432;2022-10-04T02:44:38;20.55;;;15.70;;
23179;SDS011;11758;45.756;11.432;2022-10-04T02:47:16;20.20;;;14.63;;
23179;SDS011;11758;45.756;11.432;2022-10-04T02:49:47;21.23;;;15.95;;
23179;SDS011;11758;45.756;11.432;2022-10-04T02:52:25;21.92;;;15.95;;
23179;SDS011;11758;45.756;11.432;2022-10-04T02:57:18;16.27;;;13.55;;
23179;SDS011;11758;45.756;11.432;2022-10-04T02:59:45;21.95;;;16.02;;
23179;SDS011;11758;45.756;11.432;2022-10-04T03:02:22;22.55;;;15.43;;
23179;SDS011;11758;45.756;11.432;2022-10-04T03:04:49;24.50;;;16.50;;
23179;SDS011;11758;45.756;11.432;2022-10-04T03:07:16;26.35;;;15.65;;
23179;SDS011;11758;45.756;11.432;2022-10-04T03:09:43;20.25;;;12.10;;
23179;SDS011;11758;45.756;11.432;2022-10-04T03:12:09;9.80;;;8.63;;
23179;SDS011;11758;45.756;11.432;2022-10-04T03:14:37;13.88;;;9.05;;
23179;SDS011;11758;45.756;11.432;2022-10-04T03:17:03;14.90;;;9.68;;
23179;SDS011;11758;45.756;11.432;2022-10-04T03:19:30;22.05;;;15.88;;
23179;SDS011;11758;45.756;11.432;2022-10-04T03:21:58;19.02;;;13.38;;
23179;SDS011;11758;45.756;11.432;2022-10-04T03:24:27;19.45;;;13.40;;
23179;SDS011;11758;45.756;11.432;2022-10-04T03:26:55;21.38;;;13.93;;
23179;SDS011;11758;45.756;11.432;2022-10-04T03:29:23;23.33;;;15.23;;
23179;SDS011;11758;45.756;11.432;2022-10-04T03:31:50;21.65;;;14.50;;
23179;SDS011;11758;45.756;11.432;2022-10-04T03:34:18;22.38;;;14.18;;
23179;SDS011;11758;45.756;11.432;2022-10-04T03:36:45;18.30;;;14.32;;
23179;SDS011;11758;45.756;11.432;2022-10-04T03:39:18;22.63;;;13.75;;
23179;SDS011;11758;45.756;11.432;2022-10-04T03:41:48;22.27;;;14.90;;
23179;SDS011;11758;45.756;11.432;2022-10-04T03:44:14;22.17;;;16.02;;
23179;SDS011;11758;45.756;11.432;2022-10-04T03:46:42;18.55;;;14.52;;
23179;SDS011;11758;45.756;11.432;2022-10-04T03:49:09;23.77;;;15.40;;
23179;SDS011;11758;45.756;11.432;2022-10-04T03:51:36;23.73;;;16.25;;
23179;SDS011;11758;45.756;11.432;2022-10-04T03:54:08;19.63;;;13.55;;
23179;SDS011;11758;45.756;11.432;2022-10-04T03:56:35;25.23;;;15.75;;
23179;SDS011;11758;45.756;11.432;2022-10-04T03:59:03;19.27;;;14.05;;
23179;SDS011;11758;45.756;11.432;2022-10-04T04:01:33;14.98;;;10.40;;
23179;SDS011;11758;45.756;11.432;2022-10-04T04:09:22;22.77;;;14.23;;
23179;SDS011;11758;45.756;11.432;2022-10-04T04:11:50;22.73;;;14.27;;
23179;SDS011;11758;45.756;11.432;2022-10-04T04:14:20;17.25;;;13.32;;
23179;SDS011;11758;45.756;11.432;2022-10-04T04:16:47;17.05;;;12.55;;
23179;SDS011;11758;45.756;11.432;2022-10-04T04:19:14;17.83;;;13.45;;
23179;SDS011;11758;45.756;11.432;2022-10-04T04:21:41;22.48;;;13.30;;
23179;SDS011;11758;45.756;11.432;2022-10-04T04:24:13;23.15;;;13.50;;
23179;SDS011;11758;45.756;11.432;2022-10-04T04:26:43;16.83;;;13.25;;
23179;SDS011;11758;45.756;11.432;2022-10-04T04:29:17;20.95;;;14.35;;
23179;SDS011;11758;45.756;11.432;2022-10-04T04:31:51;24.60;;;14.05;;
23179;SDS011;11758;45.756;11.432;2022-10-04T04:34:19;21.95;;;14.40;;
23179;SDS011;11758;45.756;11.432;2022-10-04T04:36:46;21.77;;;16.65;;
23179;SDS011;11758;45.756;11.432;2022-10-04T04:42:01;12.57;;;8.63;;
23179;SDS011;11758;45.756;11.432;2022-10-04T04:44:27;15.00;;;9.07;;
23179;SDS011;11758;45.756;11.432;2022-10-04T04:46:53;17.02;;;11.60;;
23179;SDS011;11758;45.756;11.432;2022-10-04T04:49:24;13.43;;;10.30;;
23179;SDS011;11758;45.756;11.432;2022-10-04T04:51:51;14.90;;;11.02;;
23179;SDS011;11758;45.756;11.432;2022-10-04T04:54:19;17.42;;;12.55;;
23179;SDS011;11758;45.756;11.432;2022-10-04T04:56:48;13.27;;;10.15;;
23179;SDS011;11758;45.756;11.432;2022-10-04T04:59:15;16.38;;;10.85;;
23179;SDS011;11758;45.756;11.432;2022-10-04T05:01:44;21.60;;;11.90;;
23179;SDS011;11758;45.756;11.432;2022-10-04T05:06:41;15.45;;;12.65;;
23179;SDS011;11758;45.756;11.432;2022-10-04T05:09:23;13.23;;;10.10;;
23179;SDS011;11758;45.756;11.432;2022-10-04T05:11:51;10.90;;;9.15;;
23179;SDS011;11758;45.756;11.432;2022-10-04T05:14:18;8.05;;;6.93;;
23179;SDS011;11758;45.756;11.432;2022-10-04T05:16:54;8.38;;;7.40;;
23179;SDS011;11758;45.756;11.432;2022-10-04T05:19:21;7.10;;;6.45;;
23179;SDS011;11758;45.756;11.432;2022-10-04T05:21:50;9.25;;;7.40;;
23179;SDS011;11758;45.756;11.432;2022-10-04T05:24:20;6.30;;;5.80;;
23179;SDS011;11758;45.756;11.432;2022-10-04T05:26:52;8.13;;;6.78;;
23179;SDS011;11758;45.756;11.432;2022-10-04T05:29:20;8.20;;;7.32;;
23179;SDS011;11758;45.756;11.432;2022-10-04T05:34:39;11.32;;;6.50;;
23179;SDS011;11758;45.756;11.432;2022-10-04T05:39:44;8.35;;;7.50;;
23179;SDS011;11758;45.756;11.432;2022-10-04T05:44:54;9.23;;;6.65;;
23179;SDS011;11758;45.756;11.432;2022-10-04T05:47:20;9.07;;;7.60;;
23179;SDS011;11758;45.756;11.432;2022-10-04T05:49:52;10.93;;;8.10;;
23179;SDS011;11758;45.756;11.432;2022-10-04T05:52:35;15.30;;;8.77;;
23179;SDS011;11758;45.756;11.432;2022-10-04T06:05:52;13.73;;;8.43;;
23179;SDS011;11758;45.756;11.432;2022-10-04T06:08:26;7.30;;;6.57;;
23179;SDS011;11758;45.756;11.432;2022-10-04T06:16:24;7.55;;;5.68;;
23179;SDS011;11758;45.756;11.432;2022-10-04T06:24:20;6.68;;;6.00;;
23179;SDS011;11758;45.756;11.432;2022-10-04T06:26:49;6.00;;;5.60;;
23179;SDS011;11758;45.756;11.432;2022-10-04T06:29:18;5.72;;;5.13;;
23179;SDS011;11758;45.756;11.432;2022-10-04T06:31:51;7.53;;;5.03;;
23179;SDS011;11758;45.756;11.432;2022-10-04T06:36:50;9.52;;;5.35;;
23179;SDS011;11758;45.756;11.432;2022-10-04T06:44:34;42.75;;;19.05;;
23179;SDS011;11758;45.756;11.432;2022-10-04T07:00:38;14.43;;;7.45;;
23179;SDS011;11758;45.756;11.432;2022-10-04T07:03:23;9.20;;;6.15;;
23179;SDS011;11758;45.756;11.432;2022-10-04T07:06:04;7.45;;;5.47;;
23179;SDS011;11758;45.756;11.432;2022-10-04T07:08:38;6.60;;;5.15;;
23179;SDS011;11758;45.756;11.432;2022-10-04T07:13:36;5.65;;;5.25;;
23179;SDS011;11758;45.756;11.432;2022-10-04T07:21:22;6.38;;;5.28;;
23179;SDS011;11758;45.756;11.432;2022-10-04T07:23:56;7.55;;;5.82;;
23179;SDS011;11758;45.756;11.432;2022-10-04T07:26:58;6.00;;;5.28;;
23179;SDS011;11758;45.756;11.432;2022-10-04T07:29:19;5.90;;;5.28;;
23179;SDS011;11758;45.756;11.432;2022-10-04T07:31:52;5.60;;;5.13;;
23179;SDS011;11758;45.756;11.432;2022-10-04T07:34:27;6.03;;;5.50;;
23179;SDS011;11758;45.756;11.432;2022-10-04T07:36:58;5.90;;;5.32;;
23179;SDS011;11758;45.756;11.432;2022-10-04T07:39:30;6.55;;;5.07;;
23179;SDS011;11758;45.756;11.432;2022-10-04T07:41:59;5.22;;;4.93;;
23179;SDS011;11758;45.756;11.432;2022-10-04T07:44:35;6.72;;;5.50;;
23179;SDS011;11758;45.756;11.432;2022-10-04T07:49:35;7.60;;;6.00;;
23179;SDS011;11758;45.756;11.432;2022-10-04T08:00:09;6.35;;;5.60;;
23179;SDS011;11758;45.756;11.432;2022-10-04T08:02:54;6.85;;;6.25;;
23179;SDS011;11758;45.756;11.432;2022-10-04T08:05:33;12.00;;;7.10;;
23179;SDS011;11758;45.756;11.432;2022-10-04T08:15:38;8.95;;;8.05;;
23179;SDS011;11758;45.756;11.432;2022-10-04T08:23:05;12.20;;;8.20;;
23179;SDS011;11758;45.756;11.432;2022-10-04T08:25:45;12.98;;;9.70;;
23179;SDS011;11758;45.756;11.432;2022-10-04T08:28:28;11.60;;;9.95;;
23179;SDS011;11758;45.756;11.432;2022-10-04T08:31:25;12.55;;;9.63;;
23179;SDS011;11758;45.756;11.432;2022-10-04T08:38:57;10.57;;;8.85;;
23179;SDS011;11758;45.756;11.432;2022-10-04T08:44:15;13.38;;;9.82;;
23179;SDS011;11758;45.756;11.432;2022-10-04T08:57:58;14.00;;;10.23;;
23179;SDS011;11758;45.756;11.432;2022-10-04T09:03:15;15.10;;;10.25;;
23179;SDS011;11758;45.756;11.432;2022-10-04T09:19:46;16.70;;;10.75;;
23179;SDS011;11758;45.756;11.432;2022-10-04T09:22:44;21.45;;;11.23;;
23179;SDS011;11758;45.756;11.432;2022-10-04T09:30:13;13.38;;;10.35;;
23179;SDS011;11758;45.756;11.432;2022-10-04T09:41:00;13.35;;;11.68;;
23179;SDS011;11758;45.756;11.432;2022-10-04T10:17:58;14.30;;;11.93;;
23179;SDS011;11758;45.756;11.432;2022-10-04T10:31:41;13.52;;;11.07;;
23179;SDS011;11758;45.756;11.432;2022-10-04T10:41:54;13.77;;;10.65;;
23179;SDS011;11758;45.756;11.432;2022-10-04T10:44:33;15.40;;;10.88;;
23179;SDS011;11758;45.756;11.432;2022-10-04T10:47:23;12.38;;;10.80;;
23179;SDS011;11758;45.756;11.432;2022-10-04T11:03:09;17.33;;;11.40;;
23179;SDS011;11758;45.756;11.432;2022-10-04T11:05:56;17.02;;;11.20;;
23179;SDS011;11758;45.756;11.432;2022-10-04T11:24:31;17.05;;;12.95;;
23179;SDS011;11758;45.756;11.432;2022-10-04T11:30:14;16.33;;;11.35;;
23179;SDS011;11758;45.756;11.432;2022-10-04T11:38:09;14.93;;;12.75;;
23179;SDS011;11758;45.756;11.432;2022-10-04T11:44:23;18.05;;;13.35;;
23179;SDS011;11758;45.756;11.432;2022-10-04T11:48:57;21.63;;;13.25;;
23179;SDS011;11758;45.756;11.432;2022-10-04T12:02:19;15.45;;;13.10;;
23179;SDS011;11758;45.756;11.432;2022-10-04T12:05:02;21.42;;;13.43;;
23179;SDS011;11758;45.756;11.432;2022-10-04T12:07:36;17.27;;;13.63;;
23179;SDS011;11758;45.756;11.432;2022-10-04T12:15:24;18.10;;;13.13;;
23179;SDS011;11758;45.756;11.432;2022-10-04T12:18:05;16.38;;;14.10;;
23179;SDS011;11758;45.756;11.432;2022-10-04T12:20:51;17.10;;;13.65;;
23179;SDS011;11758;45.756;11.432;2022-10-04T12:33:50;21.33;;;12.77;;
23179;SDS011;11758;45.756;11.432;2022-10-04T12:37:02;17.45;;;14.27;;
23179;SDS011;11758;45.756;11.432;2022-10-04T12:41:51;20.40;;;13.63;;
23179;SDS011;11758;45.756;11.432;2022-10-04T12:52:18;17.17;;;13.63;;
23179;SDS011;11758;45.756;11.432;2022-10-04T12:54:46;14.55;;;13.05;;
23179;SDS011;11758;45.756;11.432;2022-10-04T12:57:18;17.60;;;11.98;;
23179;SDS011;11758;45.756;11.432;2022-10-04T12:59:52;17.58;;;13.48;;
23179;SDS011;11758;45.756;11.432;2022-10-04T13:05:09;18.40;;;13.35;;
23179;SDS011;11758;45.756;11.432;2022-10-04T13:07:52;16.80;;;12.77;;
23179;SDS011;11758;45.756;11.432;2022-10-04T13:11:05;19.15;;;13.15;;
23179;SDS011;11758;45.756;11.432;2022-10-04T13:19:13;13.43;;;11.45;;
23179;SDS011;11758;45.756;11.432;2022-10-04T13:21:51;10.93;;;9.70;;
23179;SDS011;11758;45.756;11.432;2022-10-04T13:24:24;12.98;;;9.43;;
23179;SDS011;11758;45.756;11.432;2022-10-04T13:30:15;10.35;;;8.80;;
23179;SDS011;11758;45.756;11.432;2022-10-04T13:35:17;10.68;;;8.35;;
23179;SDS011;11758;45.756;11.432;2022-10-04T13:55:59;8.80;;;6.95;;
23179;SDS011;11758;45.756;11.432;2022-10-04T13:58:59;9.30;;;7.07;;
23179;SDS011;11758;45.756;11.432;2022-10-04T14:07:00;11.55;;;6.47;;
23179;SDS011;11758;45.756;11.432;2022-10-04T14:23:06;11.82;;;6.60;;
23179;SDS011;11758;45.756;11.432;2022-10-04T14:25:42;8.55;;;6.95;;
23179;SDS011;11758;45.756;11.432;2022-10-04T14:33:50;14.77;;;9.05;;
23179;SDS011;11758;45.756;11.432;2022-10-04T14:38:51;12.35;;;9.05;;
23179;SDS011;11758;45.756;11.432;2022-10-04T14:49:27;15.13;;;9.20;;
23179;SDS011;11758;45.756;11.432;2022-10-04T15:00:47;9.93;;;8.50;;
23179;SDS011;11758;45.756;11.432;2022-10-04T15:03:14;12.00;;;8.15;;
23179;SDS011;11758;45.756;11.432;2022-10-04T15:10:53;12.73;;;7.45;;
23179;SDS011;11758;45.756;11.432;2022-10-04T15:15:59;7.80;;;7.10;;
23179;SDS011;11758;45.756;11.432;2022-10-04T15:21:28;8.45;;;7.43;;
23179;SDS011;11758;45.756;11.432;2022-10-04T15:23:58;7.57;;;6.05;;
23179;SDS011;11758;45.756;11.432;2022-10-04T15:29:02;7.03;;;5.82;;
23179;SDS011;11758;45.756;11.432;2022-10-04T15:34:01;5.80;;;5.30;;
23179;SDS011;11758;45.756;11.432;2022-10-04T15:36:37;6.45;;;4.80;;
23179;SDS011;11758;45.756;11.432;2022-10-04T15:49:47;6.50;;;5.90;;
23179;SDS011;11758;45.756;11.432;2022-10-04T15:52:13;10.02;;;7.18;;
23179;SDS011;11758;45.756;11.432;2022-10-04T15:57:28;6.93;;;6.32;;
23179;SDS011;11758;45.756;11.432;2022-10-04T16:00:01;12.52;;;7.18;;
23179;SDS011;11758;45.756;11.432;2022-10-04T16:05:16;9.68;;;6.82;;
23179;SDS011;11758;45.756;11.432;2022-10-04T16:07:55;9.02;;;6.97;;
23179;SDS011;11758;45.756;11.432;2022-10-04T16:15:42;12.25;;;7.18;;
23179;SDS011;11758;45.756;11.432;2022-10-04T16:23:37;12.05;;;7.85;;
23179;SDS011;11758;45.756;11.432;2022-10-04T16:36:47;16.88;;;8.10;;
23179;SDS011;11758;45.756;11.432;2022-10-04T16:39:36;9.38;;;8.38;;
23179;SDS011;11758;45.756;11.432;2022-10-04T16:43:08;9.65;;;7.15;;
23179;SDS011;11758;45.756;11.432;2022-10-04T16:47:34;19.33;;;10.70;;
23179;SDS011;11758;45.756;11.432;2022-10-04T16:50:03;11.60;;;9.93;;
23179;SDS011;11758;45.756;11.432;2022-10-04T16:52:41;11.23;;;7.72;;
23179;SDS011;11758;45.756;11.432;2022-10-04T17:01:18;12.00;;;8.55;;
23179;SDS011;11758;45.756;11.432;2022-10-04T17:03:36;11.85;;;8.07;;
23179;SDS011;11758;45.756;11.432;2022-10-04T17:06:13;15.88;;;8.07;;
23179;SDS011;11758;45.756;11.432;2022-10-04T17:14:16;14.10;;;7.28;;
23179;SDS011;11758;45.756;11.432;2022-10-04T17:17:32;13.73;;;6.82;;
23179;SDS011;11758;45.756;11.432;2022-10-04T17:19:41;10.50;;;6.95;;
23179;SDS011;11758;45.756;11.432;2022-10-04T17:30:41;12.18;;;6.50;;
23179;SDS011;11758;45.756;11.432;2022-10-04T17:33:16;9.32;;;6.78;;
23179;SDS011;11758;45.756;11.432;2022-10-04T17:38:48;8.45;;;6.65;;
23179;SDS011;11758;45.756;11.432;2022-10-04T17:44:15;7.63;;;6.72;;
23179;SDS011;11758;45.756;11.432;2022-10-04T17:46:56;7.88;;;7.10;;
23179;SDS011;11758;45.756;11.432;2022-10-04T17:52:13;10.73;;;7.18;;
23179;SDS011;11758;45.756;11.432;2022-10-04T17:56:01;11.13;;;8.00;;
23179;SDS011;11758;45.756;11.432;2022-10-04T17:58:13;8.30;;;7.32;;
23179;SDS011;11758;45.756;11.432;2022-10-04T18:00:45;11.27;;;7.93;;
23179;SDS011;11758;45.756;11.432;2022-10-04T18:03:15;10.52;;;7.95;;
23179;SDS011;11758;45.756;11.432;2022-10-04T18:08:12;8.82;;;7.70;;
23179;SDS011;11758;45.756;11.432;2022-10-04T18:10:47;10.07;;;7.80;;
23179;SDS011;11758;45.756;11.432;2022-10-04T18:18:46;10.13;;;7.55;;
23179;SDS011;11758;45.756;11.432;2022-10-04T18:21:21;11.77;;;8.02;;
23179;SDS011;11758;45.756;11.432;2022-10-04T18:23:54;9.43;;;8.40;;
23179;SDS011;11758;45.756;11.432;2022-10-04T18:26:21;11.43;;;8.57;;
23179;SDS011;11758;45.756;11.432;2022-10-04T18:28:48;10.05;;;7.88;;
23179;SDS011;11758;45.756;11.432;2022-10-04T18:34:16;11.25;;;9.18;;
23179;SDS011;11758;45.756;11.432;2022-10-04T18:41:42;7.75;;;6.72;;
23179;SDS011;11758;45.756;11.432;2022-10-04T18:44:23;8.55;;;6.68;;
23179;SDS011;11758;45.756;11.432;2022-10-04T18:46:57;9.73;;;6.30;;
23179;SDS011;11758;45.756;11.432;2022-10-04T18:49:28;9.30;;;6.43;;
23179;SDS011;11758;45.756;11.432;2022-10-04T18:52:13;7.15;;;6.45;;
23179;SDS011;11758;45.756;11.432;2022-10-04T19:06:01;7.40;;;6.15;;
23179;SDS011;11758;45.756;11.432;2022-10-04T19:08:28;10.57;;;6.45;;
23179;SDS011;11758;45.756;11.432;2022-10-04T19:11:03;7.90;;;6.63;;
23179;SDS011;11758;45.756;11.432;2022-10-04T19:16:13;9.20;;;7.65;;
23179;SDS011;11758;45.756;11.432;2022-10-04T19:21:24;11.23;;;8.27;;
23179;SDS011;11758;45.756;11.432;2022-10-04T19:26:35;9.88;;;8.88;;
23179;SDS011;11758;45.756;11.432;2022-10-04T19:34:19;8.93;;;8.02;;
23179;SDS011;11758;45.756;11.432;2022-10-04T19:41:45;11.07;;;8.48;;
23179;SDS011;11758;45.756;11.432;2022-10-04T19:49:56;13.75;;;8.63;;
23179;SDS011;11758;45.756;11.432;2022-10-04T19:55:00;11.38;;;8.75;;
23179;SDS011;11758;45.756;11.432;2022-10-04T19:57:35;9.35;;;8.30;;
23179;SDS011;11758;45.756;11.432;2022-10-04T20:00:17;9.45;;;8.45;;
23179;SDS011;11758;45.756;11.432;2022-10-04T20:02:51;12.43;;;8.30;;
23179;SDS011;11758;45.756;11.432;2022-10-04T20:05:18;11.43;;;8.52;;
23179;SDS011;11758;45.756;11.432;2022-10-04T20:07:56;12.73;;;9.13;;
23179;SDS011;11758;45.756;11.432;2022-10-04T20:10:33;13.80;;;9.05;;
23179;SDS011;11758;45.756;11.432;2022-10-04T20:18:49;14.55;;;9.48;;
23179;SDS011;11758;45.756;11.432;2022-10-04T20:31:03;13.07;;;10.20;;
23179;SDS011;11758;45.756;11.432;2022-10-04T20:36:10;14.85;;;10.50;;
23179;SDS011;11758;45.756;11.432;2022-10-04T20:38:42;12.43;;;9.20;;
23179;SDS011;11758;45.756;11.432;2022-10-04T20:43:56;14.70;;;8.82;;
23179;SDS011;11758;45.756;11.432;2022-10-04T20:46:26;13.25;;;8.95;;
23179;SDS011;11758;45.756;11.432;2022-10-04T20:48:52;14.60;;;9.68;;
23179;SDS011;11758;45.756;11.432;2022-10-04T20:51:19;12.40;;;9.60;;
23179;SDS011;11758;45.756;11.432;2022-10-04T20:53:48;10.60;;;9.38;;
23179;SDS011;11758;45.756;11.432;2022-10-04T20:56:28;13.10;;;9.45;;
23179;SDS011;11758;45.756;11.432;2022-10-04T20:58:55;11.75;;;9.70;;
23179;SDS011;11758;45.756;11.432;2022-10-04T21:01:24;11.25;;;8.90;;
23179;SDS011;11758;45.756;11.432;2022-10-04T21:04:10;14.48;;;9.27;;
23179;SDS011;11758;45.756;11.432;2022-10-04T21:06:55;9.20;;;8.30;;
23179;SDS011;11758;45.756;11.432;2022-10-04T21:09:22;12.10;;;8.52;;
23179;SDS011;11758;45.756;11.432;2022-10-04T21:11:49;10.57;;;8.45;;
23179;SDS011;11758;45.756;11.432;2022-10-04T21:14:23;8.60;;;7.78;;
23179;SDS011;11758;45.756;11.432;2022-10-04T21:16:50;8.98;;;7.68;;
23179;SDS011;11758;45.756;11.432;2022-10-04T21:24:35;9.60;;;6.93;;
23179;SDS011;11758;45.756;11.432;2022-10-04T21:27:02;11.27;;;6.80;;
23179;SDS011;11758;45.756;11.432;2022-10-04T21:29:28;8.63;;;6.88;;
23179;SDS011;11758;45.756;11.432;2022-10-04T21:31:55;8.75;;;7.10;;
23179;SDS011;11758;45.756;11.432;2022-10-04T21:34:21;14.07;;;7.97;;
23179;SDS011;11758;45.756;11.432;2022-10-04T21:36:47;8.07;;;7.00;;
23179;SDS011;11758;45.756;11.432;2022-10-04T21:39:16;8.43;;;7.63;;
23179;SDS011;11758;45.756;11.432;2022-10-04T21:41:42;14.30;;;7.88;;
23179;SDS011;11758;45.756;11.432;2022-10-04T21:44:08;8.88;;;7.97;;
23179;SDS011;11758;45.756;11.432;2022-10-04T21:46:35;12.88;;;7.60;;
23179;SDS011;11758;45.756;11.432;2022-10-04T21:49:01;8.00;;;7.15;;
23179;SDS011;11758;45.756;11.432;2022-10-04T21:51:28;10.13;;;7.05;;
23179;SDS011;11758;45.756;11.432;2022-10-04T21:54:00;6.93;;;6.32;;
23179;SDS011;11758;45.756;11.432;2022-10-04T21:56:26;10.40;;;7.20;;
23179;SDS011;11758;45.756;11.432;2022-10-04T21:58:52;10.77;;;6.90;;
23179;SDS011;11758;45.756;11.432;2022-10-04T22:01:19;9.68;;;7.82;;
23179;SDS011;11758;45.756;11.432;2022-10-04T22:03:45;11.63;;;7.72;;
23179;SDS011;11758;45.756;11.432;2022-10-04T22:06:11;8.65;;;7.65;;
23179;SDS011;11758;45.756;11.432;2022-10-04T22:08:37;12.98;;;7.45;;
23179;SDS011;11758;45.756;11.432;2022-10-04T22:11:03;9.70;;;6.72;;
23179;SDS011;11758;45.756;11.432;2022-10-04T22:13:29;9.10;;;7.75;;
23179;SDS011;11758;45.756;11.432;2022-10-04T22:15:55;10.27;;;7.40;;
23179;SDS011;11758;45.756;11.432;2022-10-04T22:18:22;9.05;;;7.47;;
23179;SDS011;11758;45.756;11.432;2022-10-04T22:20:48;25.45;;;13.90;;
23179;SDS011;11758;45.756;11.432;2022-10-04T22:23:17;11.75;;;6.80;;
23179;SDS011;11758;45.756;11.432;2022-10-04T22:25:44;11.25;;;8.93;;
23179;SDS011;11758;45.756;11.432;2022-10-04T22:28:29;15.23;;;8.50;;
23179;SDS011;11758;45.756;11.432;2022-10-04T22:33:37;11.20;;;9.05;;
23179;SDS011;11758;45.756;11.432;2022-10-04T22:36:49;14.68;;;8.38;;
23179;SDS011;11758;45.756;11.432;2022-10-04T22:39:13;11.68;;;7.43;;
23179;SDS011;11758;45.756;11.432;2022-10-04T22:41:53;8.73;;;5.60;;
23179;SDS011;11758;45.756;11.432;2022-10-04T22:46:48;10.55;;;5.30;;
23179;SDS011;11758;45.756;11.432;2022-10-04T22:49:17;8.05;;;6.05;;
23179;SDS011;11758;45.756;11.432;2022-10-04T22:51:46;6.63;;;6.03;;
23179;SDS011;11758;45.756;11.432;2022-10-04T22:54:15;8.77;;;6.30;;
23179;SDS011;11758;45.756;11.432;2022-10-04T22:56:41;11.85;;;6.88;;
23179;SDS011;11758;45.756;11.432;2022-10-04T22:59:11;13.13;;;7.35;;
23179;SDS011;11758;45.756;11.432;2022-10-04T23:01:38;7.90;;;7.10;;
23179;SDS011;11758;45.756;11.432;2022-10-04T23:04:25;12.55;;;7.00;;
23179;SDS011;11758;45.756;11.432;2022-10-04T23:06:51;9.75;;;7.03;;
23179;SDS011;11758;45.756;11.432;2022-10-04T23:09:17;6.70;;;5.90;;
23179;SDS011;11758;45.756;11.432;2022-10-04T23:11:44;8.52;;;7.03;;
23179;SDS011;11758;45.756;11.432;2022-10-04T23:14:11;10.38;;;7.10;;
23179;SDS011;11758;45.756;11.432;2022-10-04T23:16:37;10.50;;;6.95;;
23179;SDS011;11758;45.756;11.432;2022-10-04T23:19:10;9.27;;;6.97;;
23179;SDS011;11758;45.756;11.432;2022-10-04T23:21:38;9.27;;;7.60;;
23179;SDS011;11758;45.756;11.432;2022-10-04T23:24:14;9.02;;;7.57;;
23179;SDS011;11758;45.756;11.432;2022-10-04T23:26:42;9.68;;;8.65;;
23179;SDS011;11758;45.756;11.432;2022-10-04T23:29:14;17.90;;;7.53;;
23179;SDS011;11758;45.756;11.432;2022-10-04T23:31:42;7.85;;;6.80;;
23179;SDS011;11758;45.756;11.432;2022-10-04T23:34:17;8.48;;;6.82;;
23179;SDS011;11758;45.756;11.432;2022-10-04T23:36:45;8.90;;;7.97;;
23179;SDS011;11758;45.756;11.432;2022-10-04T23:39:24;8.88;;;7.97;;
23179;SDS011;11758;45.756;11.432;2022-10-04T23:41:51;9.30;;;7.43;;
23179;SDS011;11758;45.756;11.432;2022-10-04T23:44:18;8.85;;;7.80;;
23179;SDS011;11758;45.756;11.432;2022-10-04T23:46:44;12.52;;;7.78;;
23179;SDS011;11758;45.756;11.432;2022-10-04T23:49:12;11.27;;;7.90;;
23179;SDS011;11758;45.756;11.432;2022-10-04T23:51:40;9.18;;;8.18;;
23179;SDS011;11758;45.756;11.432;2022-10-04T23:54:11;9.70;;;8.70;;
23179;SDS011;11758;45.756;11.432;2022-10-04T23:56:38;8.23;;;7.50;;
23179;SDS011;11758;45.756;11.432;2022-10-04T23:59:07;10.10;;;8.63;;
